METAR AND TAF INFORMATION
METAR FOR LYBE
ADDS - METARS form results

(1740 UTC 18 January 2018)
Data provider http://aviationweather.gov/adds/metars/
 
METAR text: LYBE 181730Z 16009KT CAVOK 04/M04 Q1012 NOSIG
Conditions at: LYBE (BELGRADE/SURCIN , CS) observed 1730 UTC 18 January 2018
Temperature: 4.0°C (39°F)
Dewpoint: -4.0°C (25°F) [RH = 56%]
Pressure (altimeter): 29.88 inches Hg (1012.0 mb)
Winds: from the SSE (160 degrees) at 10 MPH (9 knots; 4.7 m/s)
Visibility: 6 or more miles (10+ km)
Ceiling: ceiling and visibility are OK
Clouds: unknown
Weather: no significant weather observed at this time

METAR text: LYBE 181700Z 16009KT 9999 FEW016 05/M04 Q1012 NOSIG
Conditions at: LYBE (BELGRADE/SURCIN , CS) observed 1700 UTC 18 January 2018
Temperature: 5.0°C (41°F)
Dewpoint: -4.0°C (25°F) [RH = 52%]
Pressure (altimeter): 29.88 inches Hg (1012.0 mb)
Winds: from the SSE (160 degrees) at 10 MPH (9 knots; 4.7 m/s)
Visibility: 6 or more miles (10+ km)
Ceiling: at least 12,000 feet AGL
Clouds: few clouds at 1600 feet AGL
Weather: no significant weather observed at this time

Forecast for: LYBE (BELGRADE/SURCIN , CS)
Text: TAF LYBE 181700Z 1818/1918 16008KT 9999 SCT040 TX08/1913Z TN02/1906Z
Forecast period: 1800 UTC 18 January 2018 to 1200 UTC 19 January 2018
Forecast type: FROM: standard forecast or significant change
Winds: from the SSE (160 degrees) at 9 MPH (8 knots; 4.2 m/s)
Visibility: 6 or more miles (10+ km)
Clouds: scattered clouds at 4000 feet AGL
Weather: no significant weather forecast for this period
Text: BECMG 1912/1814 02010KT 5000 RA
Forecast period: 1200 to 1800 UTC 19 January 2018
Forecast type: BECOMING: Conditions expected to become as follows by 1400 UTC 18 January 2018
Winds: from the NNE (20 degrees) at 12 MPH (10 knots; 5.2 m/s)
Visibility: 3 miles (5 km)
Clouds: scattered clouds at 4000 feet AGL
Weather: RA  (rain)

 AIRPORT MAP

 RUNWAY INFORMATION
Runway 12 Runway length 11155 ft Runway width 148 ft
Runway elevation 318 ft Runway displaced threshold 0 ft Runway heading 122
Runway 30 Runway length 11155 ft Runway width 148 ft
Runway elevation 335 ft Runway displaced threshold 1312 ft Runway heading 302

 AIRPORT FREQUENCIES
Type APP Name APP Frequency 119.1 MHZ
Type ATIS Name INFO Frequency 122.925 MHZ
Type TWR Name TWR Frequency 118.1 MHZ

 AIRPORT NEAR NAVIGATION AIDS
Type VOR-DME Name Beograd Frequency 112300 KHZ
Type NDB Name Beograd Frequency 316 KHZ
Type NDB Name Beograd Frequency 380 KHZ
Type NDB Name Beograd Frequency 355 KHZ



v2.6.1